createdAt,value
2022-10-31T00:02:19.300Z,12.38
2022-10-31T00:04:45.105Z,24.98
2022-10-31T00:07:10.957Z,17.38
2022-10-31T00:09:36.733Z,15.82
2022-10-31T00:12:03.387Z,16.10
2022-10-31T00:14:29.181Z,21.23
2022-10-31T00:16:54.988Z,15.07
2022-10-31T00:19:22.317Z,14.55
2022-10-31T00:21:48.057Z,13.63
2022-10-31T00:24:13.971Z,15.88
2022-10-31T00:26:39.764Z,16.25
2022-10-31T00:29:05.849Z,12.23
2022-10-31T00:31:31.591Z,13.50
2022-10-31T00:33:58.099Z,14.63
2022-10-31T00:36:23.913Z,20.25
2022-10-31T00:38:49.791Z,15.07
2022-10-31T00:41:17.537Z,16.48
2022-10-31T00:43:44.015Z,13.35
2022-10-31T00:46:11.607Z,15.38
2022-10-31T00:48:37.507Z,16.38
2022-10-31T00:51:03.621Z,16.33
2022-10-31T00:53:29.445Z,11.70
2022-10-31T00:55:55.233Z,10.02
2022-10-31T00:58:21.117Z,23.17
2022-10-31T01:00:55.153Z,13.20
2022-10-31T01:03:26.293Z,16.67
2022-10-31T01:06:04.476Z,14.52
2022-10-31T01:08:31.281Z,17.92
2022-10-31T01:11:00.036Z,12.25
2022-10-31T01:13:25.878Z,12.68
2022-10-31T01:15:56.182Z,19.83
2022-10-31T01:18:22.189Z,15.35
2022-10-31T01:20:48.160Z,13.07
2022-10-31T01:23:13.988Z,18.73
2022-10-31T01:25:40.002Z,15.73
2022-10-31T01:28:05.803Z,17.25
2022-10-31T01:30:32.113Z,15.45
2022-10-31T01:32:58.085Z,15.38
2022-10-31T01:35:24.151Z,14.77
2022-10-31T01:37:49.949Z,20.88
2022-10-31T01:40:15.785Z,14.10
2022-10-31T01:42:41.558Z,17.30
2022-10-31T01:45:10.486Z,24.52
2022-10-31T01:47:47.398Z,17.67
2022-10-31T01:50:22.035Z,18.38
2022-10-31T01:52:51.341Z,24.52
2022-10-31T01:55:32.436Z,14.93
2022-10-31T01:58:04.889Z,13.32
2022-10-31T02:00:31.127Z,16.50
2022-10-31T02:02:57.424Z,20.63
2022-10-31T02:05:28.613Z,15.18
2022-10-31T02:08:06.344Z,15.68
2022-10-31T02:10:33.541Z,16.42
2022-10-31T02:13:02.920Z,11.88
2022-10-31T02:15:31.246Z,16.48
2022-10-31T02:17:57.438Z,14.27
2022-10-31T02:20:33.342Z,15.43
2022-10-31T02:23:30.155Z,15.20
2022-10-31T02:26:31.981Z,16.42
2022-10-31T02:29:34.725Z,18.15
2022-10-31T02:32:11.377Z,19.80
2022-10-31T02:34:53.068Z,16.88
2022-10-31T02:37:49.070Z,16.05
2022-10-31T02:40:37.007Z,19.00
2022-10-31T02:45:58.042Z,23.50
2022-10-31T02:48:28.367Z,15.88
2022-10-31T02:51:00.558Z,20.90
2022-10-31T02:53:26.980Z,25.85
2022-10-31T02:56:00.590Z,17.65
2022-10-31T02:58:29.736Z,15.75
2022-10-31T03:01:07.512Z,14.13
2022-10-31T03:03:49.139Z,20.88
2022-10-31T03:06:41.391Z,15.55
2022-10-31T03:09:17.002Z,24.05
2022-10-31T03:11:59.205Z,20.05
2022-10-31T03:14:43.196Z,18.88
2022-10-31T03:17:17.102Z,25.60
2022-10-31T03:19:47.545Z,20.95
2022-10-31T03:22:21.181Z,18.05
2022-10-31T03:24:51.252Z,17.05
2022-10-31T03:27:22.611Z,18.75
2022-10-31T03:29:50.831Z,25.30
2022-10-31T03:32:25.091Z,21.63
2022-10-31T03:34:53.616Z,19.33
2022-10-31T03:37:21.001Z,17.83
2022-10-31T03:39:48.977Z,17.83
2022-10-31T03:42:18.787Z,24.67
2022-10-31T03:44:54.074Z,20.80
2022-10-31T03:47:20.033Z,24.92
2022-10-31T03:49:46.001Z,20.45
2022-10-31T03:52:41.726Z,20.42
2022-10-31T03:55:14.468Z,27.48
2022-10-31T03:57:55.462Z,27.60
2022-10-31T04:00:21.514Z,31.58
2022-10-31T04:03:10.192Z,23.75
2022-10-31T04:05:37.609Z,29.30
2022-10-31T04:08:07.876Z,28.75
2022-10-31T04:10:36.849Z,26.50
2022-10-31T04:13:10.058Z,21.98
2022-10-31T04:15:38.919Z,26.75
2022-10-31T04:18:06.099Z,18.65
2022-10-31T04:20:34.145Z,22.83
2022-10-31T04:23:01.341Z,31.00
2022-10-31T04:25:27.396Z,22.83
2022-10-31T04:27:53.181Z,22.27
2022-10-31T04:30:18.956Z,28.05
2022-10-31T04:32:44.772Z,25.25
2022-10-31T04:35:10.627Z,29.73
2022-10-31T04:37:36.432Z,24.20
2022-10-31T04:40:03.091Z,25.40
2022-10-31T04:42:32.580Z,25.02
2022-10-31T04:44:58.372Z,23.42
2022-10-31T04:47:24.142Z,29.65
2022-10-31T04:49:50.146Z,29.95
2022-10-31T04:52:15.895Z,27.80
2022-10-31T04:54:41.656Z,27.80
2022-10-31T04:57:07.456Z,32.92
2022-10-31T04:59:33.231Z,28.40
2022-10-31T05:01:59.081Z,26.00
2022-10-31T05:04:24.907Z,25.83
2022-10-31T05:06:50.630Z,23.48
2022-10-31T05:09:16.367Z,31.60
2022-10-31T05:11:42.332Z,27.58
2022-10-31T05:14:08.161Z,31.27
2022-10-31T05:16:34.010Z,26.15
2022-10-31T05:18:59.756Z,25.23
2022-10-31T05:21:25.546Z,31.10
2022-10-31T05:23:52.432Z,26.85
2022-10-31T05:26:18.170Z,25.35
2022-10-31T05:28:43.967Z,27.77
2022-10-31T05:31:09.741Z,23.05
2022-10-31T05:33:35.481Z,30.98
2022-10-31T05:36:01.310Z,24.70
2022-10-31T05:38:27.160Z,30.25
2022-10-31T05:41:02.501Z,29.55
2022-10-31T05:43:28.472Z,30.17
2022-10-31T05:45:55.311Z,32.28
2022-10-31T05:48:21.346Z,33.50
2022-10-31T05:50:48.809Z,28.35
2022-10-31T05:53:15.676Z,34.05
2022-10-31T05:55:43.273Z,35.00
2022-10-31T05:58:10.401Z,32.78
2022-10-31T06:00:36.288Z,29.48
2022-10-31T06:05:38.347Z,28.58
2022-10-31T06:08:04.682Z,32.35
2022-10-31T06:10:30.711Z,39.00
2022-10-31T06:12:56.681Z,37.08
2022-10-31T06:15:24.473Z,35.60
2022-10-31T06:18:05.092Z,42.92
2022-10-31T06:20:31.601Z,34.95
2022-10-31T06:22:57.749Z,39.33
2022-10-31T06:25:25.303Z,38.58
2022-10-31T06:27:51.046Z,37.88
2022-10-31T06:30:17.018Z,35.13
2022-10-31T06:32:42.891Z,39.88
2022-10-31T06:35:09.172Z,34.13
2022-10-31T06:37:34.996Z,34.40
2022-10-31T06:40:00.940Z,35.25
2022-10-31T06:42:26.738Z,31.13
2022-10-31T06:44:52.487Z,29.50
2022-10-31T06:47:18.351Z,28.13
2022-10-31T06:49:44.076Z,30.40
2022-10-31T06:52:09.892Z,26.88
2022-10-31T06:54:35.686Z,25.33
2022-10-31T06:57:01.514Z,30.63
2022-10-31T06:59:27.271Z,27.65
2022-10-31T07:01:53.122Z,36.70
2022-10-31T07:04:19.379Z,21.98
2022-10-31T07:06:49.518Z,27.38
2022-10-31T07:09:17.610Z,29.23
2022-10-31T07:11:43.399Z,31.08
2022-10-31T07:14:09.226Z,28.50
2022-10-31T07:16:34.993Z,26.60
2022-10-31T07:19:00.828Z,21.90
2022-10-31T07:21:26.686Z,26.42
2022-10-31T07:23:52.436Z,28.80
2022-10-31T07:26:18.294Z,22.30
2022-10-31T07:28:45.700Z,27.08
2022-10-31T07:31:11.435Z,26.02
2022-10-31T07:33:37.262Z,27.08
2022-10-31T07:36:03.350Z,25.15
2022-10-31T07:38:29.121Z,22.25
2022-10-31T07:40:54.931Z,24.30
2022-10-31T07:43:21.194Z,32.55
2022-10-31T07:45:54.065Z,25.40
2022-10-31T07:48:20.220Z,24.05
2022-10-31T07:50:46.587Z,25.20
2022-10-31T07:53:14.323Z,24.33
2022-10-31T07:55:40.425Z,24.30
2022-10-31T07:58:11.511Z,22.52
2022-10-31T08:00:38.983Z,28.50
2022-10-31T08:03:10.291Z,23.95
2022-10-31T08:05:36.423Z,26.33
2022-10-31T08:08:05.757Z,21.67
2022-10-31T08:10:32.542Z,30.25
2022-10-31T08:13:00.938Z,23.85
2022-10-31T08:15:27.375Z,24.63
2022-10-31T08:17:53.507Z,24.73
2022-10-31T08:20:20.341Z,27.00
2022-10-31T08:22:54.457Z,19.52
2022-10-31T08:25:20.344Z,25.15
2022-10-31T08:27:53.469Z,23.65
2022-10-31T08:30:20.984Z,23.63
2022-10-31T08:32:48.311Z,20.02
2022-10-31T08:35:14.554Z,18.27
2022-10-31T08:37:40.355Z,19.88
2022-10-31T08:40:06.957Z,20.35
2022-10-31T08:42:32.999Z,17.65
2022-10-31T08:44:58.782Z,18.00
2022-10-31T08:47:24.547Z,21.02
2022-10-31T08:49:50.367Z,21.92
2022-10-31T08:52:16.300Z,23.30
2022-10-31T08:54:42.124Z,25.17
2022-10-31T08:57:07.972Z,12.65
2022-10-31T08:59:33.754Z,16.95
2022-10-31T09:01:59.596Z,20.77
2022-10-31T09:04:25.409Z,17.70
2022-10-31T09:07:19.756Z,18.55
2022-10-31T09:12:02.903Z,18.17
2022-10-31T09:14:28.725Z,23.08
2022-10-31T09:16:54.545Z,13.50
2022-10-31T09:19:20.322Z,12.52
2022-10-31T09:21:46.119Z,16.90
2022-10-31T09:24:11.974Z,18.95
2022-10-31T09:26:37.717Z,14.75
2022-10-31T09:29:03.485Z,14.68
2022-10-31T09:31:29.499Z,14.82
2022-10-31T09:33:55.416Z,12.57
2022-10-31T09:36:21.158Z,20.42
2022-10-31T09:38:46.988Z,14.27
2022-10-31T09:41:27.758Z,15.32
2022-10-31T09:44:16.479Z,16.15
2022-10-31T09:46:48.295Z,10.68
2022-10-31T09:49:31.260Z,13.23
2022-10-31T09:52:03.550Z,10.93
2022-10-31T09:54:41.088Z,19.58
2022-10-31T09:57:13.250Z,18.73
2022-10-31T09:59:41.338Z,16.88
2022-10-31T10:02:42.993Z,13.50
2022-10-31T10:05:26.443Z,17.55
2022-10-31T10:08:12.633Z,9.40
2022-10-31T10:10:53.710Z,12.75
2022-10-31T10:13:56.441Z,11.43
2022-10-31T10:16:37.460Z,11.88
2022-10-31T10:19:31.100Z,13.13
2022-10-31T10:22:20.837Z,13.23
2022-10-31T10:25:14.700Z,15.32
2022-10-31T10:27:51.714Z,13.93
2022-10-31T10:30:35.985Z,14.30
2022-10-31T10:33:10.532Z,10.63
2022-10-31T10:35:43.275Z,14.38
2022-10-31T10:38:12.636Z,16.80
2022-10-31T10:40:38.521Z,13.00
2022-10-31T10:43:19.475Z,12.02
2022-10-31T10:46:15.260Z,7.43
2022-10-31T10:48:45.506Z,12.88
2022-10-31T10:54:37.469Z,15.18
2022-10-31T10:57:24.323Z,12.13
2022-10-31T10:59:51.441Z,11.30
2022-10-31T11:02:24.998Z,8.68
2022-10-31T11:04:56.309Z,8.38
2022-10-31T11:07:22.319Z,13.73
2022-10-31T11:09:48.205Z,11.80
2022-10-31T11:12:24.787Z,14.60
2022-10-31T11:14:59.654Z,7.28
2022-10-31T11:17:33.425Z,11.77
2022-10-31T11:20:17.843Z,12.30
2022-10-31T11:22:46.911Z,9.90
2022-10-31T11:25:21.802Z,12.45
2022-10-31T11:27:58.515Z,11.32
2022-10-31T11:30:24.401Z,11.00
2022-10-31T11:32:52.733Z,21.42
2022-10-31T11:35:21.456Z,9.02
2022-10-31T11:37:49.925Z,14.68
2022-10-31T11:40:22.368Z,13.82
2022-10-31T11:42:49.919Z,19.05
2022-10-31T11:45:19.351Z,12.70
2022-10-31T11:47:49.764Z,12.48
2022-10-31T11:50:25.084Z,12.55
2022-10-31T11:52:52.891Z,10.18
2022-10-31T11:55:41.382Z,12.65
2022-10-31T11:58:25.107Z,16.48
2022-10-31T12:00:53.853Z,15.35
2022-10-31T12:03:22.501Z,11.85
2022-10-31T12:06:00.214Z,14.07
2022-10-31T12:08:31.623Z,11.93
2022-10-31T12:11:42.233Z,17.67
2022-10-31T12:14:35.994Z,17.75
2022-10-31T12:17:16.017Z,15.80
2022-10-31T12:20:18.702Z,16.60
2022-10-31T12:22:47.141Z,15.70
2022-10-31T12:25:27.531Z,18.95
2022-10-31T12:28:32.068Z,16.65
2022-10-31T12:31:10.143Z,12.02
2022-10-31T12:34:14.198Z,11.52
2022-10-31T12:36:39.991Z,15.00
2022-10-31T12:39:14.723Z,24.73
2022-10-31T12:41:48.280Z,16.23
2022-10-31T12:44:30.943Z,14.52
2022-10-31T12:47:05.850Z,14.27
2022-10-31T12:49:59.467Z,19.52
2022-10-31T12:52:34.145Z,13.80
2022-10-31T12:55:31.193Z,14.35
2022-10-31T12:58:12.302Z,17.00
2022-10-31T13:00:44.875Z,9.02
2022-10-31T13:03:34.389Z,21.50
2022-10-31T13:06:07.993Z,16.58
2022-10-31T13:08:46.047Z,14.65
2022-10-31T13:11:31.193Z,11.98
2022-10-31T13:14:11.668Z,11.93
2022-10-31T13:16:41.584Z,18.52
2022-10-31T13:19:17.003Z,15.18
2022-10-31T13:21:49.637Z,13.55
2022-10-31T13:24:21.353Z,11.43
2022-10-31T13:26:51.789Z,12.32
2022-10-31T13:29:17.709Z,14.45
2022-10-31T13:31:43.791Z,18.25
2022-10-31T13:34:19.768Z,14.38
2022-10-31T13:37:04.482Z,18.15
2022-10-31T13:39:49.567Z,17.07
2022-10-31T13:42:37.543Z,13.05
2022-10-31T13:45:23.890Z,15.90
2022-10-31T13:48:15.277Z,16.70
2022-10-31T13:50:42.671Z,15.82
2022-10-31T13:53:18.535Z,17.23
2022-10-31T13:55:50.143Z,14.05
2022-10-31T13:58:29.854Z,13.63
2022-10-31T14:01:11.152Z,12.18
2022-10-31T14:04:04.625Z,13.52
2022-10-31T14:06:36.488Z,12.80
2022-10-31T14:09:02.856Z,17.17
2022-10-31T14:11:34.424Z,20.80
2022-10-31T14:14:03.354Z,10.63
2022-10-31T14:16:32.210Z,18.63
2022-10-31T14:19:07.105Z,13.73
2022-10-31T14:21:42.049Z,12.75
2022-10-31T14:24:22.909Z,12.73
2022-10-31T14:26:57.121Z,13.43
2022-10-31T14:29:28.764Z,17.02
2022-10-31T14:32:13.637Z,14.77
2022-10-31T14:34:51.090Z,14.23
2022-10-31T14:37:36.592Z,13.23
2022-10-31T14:40:41.693Z,9.52
2022-10-31T14:43:26.889Z,12.93
2022-10-31T14:46:01.885Z,14.68
2022-10-31T14:48:30.461Z,11.07
2022-10-31T14:51:01.739Z,11.95
2022-10-31T14:53:36.775Z,14.25
2022-10-31T14:56:06.974Z,13.95
2022-10-31T14:58:38.545Z,11.90
2022-10-31T15:01:04.945Z,12.60
2022-10-31T15:03:37.213Z,11.40
2022-10-31T15:06:10.426Z,7.78
2022-10-31T15:08:41.062Z,10.13
2022-10-31T15:11:21.227Z,11.68
2022-10-31T15:13:51.336Z,15.68
2022-10-31T15:16:26.237Z,15.70
2022-10-31T15:18:55.285Z,9.95
2022-10-31T15:21:23.512Z,15.52
2022-10-31T15:23:52.371Z,7.78
2022-10-31T15:26:20.899Z,15.50
2022-10-31T15:28:58.058Z,11.05
2022-10-31T15:31:23.870Z,14.57
2022-10-31T15:33:50.631Z,11.88
2022-10-31T15:36:24.035Z,11.10
2022-10-31T15:38:56.576Z,12.48
2022-10-31T15:41:28.944Z,9.35
2022-10-31T15:43:57.635Z,15.50
2022-10-31T15:46:23.437Z,13.43
2022-10-31T15:48:49.336Z,10.35
2022-10-31T15:51:15.269Z,14.40
2022-10-31T15:53:48.834Z,12.65
2022-10-31T15:56:22.308Z,12.20
2022-10-31T15:58:51.444Z,12.48
2022-10-31T16:01:20.276Z,8.60
2022-10-31T16:04:17.082Z,16.50
2022-10-31T16:06:42.857Z,11.75
2022-10-31T16:09:37.987Z,11.45
2022-10-31T16:12:03.897Z,15.27
2022-10-31T16:14:33.332Z,10.20
2022-10-31T16:17:01.347Z,17.92
2022-10-31T16:19:31.629Z,12.55
2022-10-31T16:22:12.154Z,13.10
2022-10-31T16:24:53.571Z,10.25
2022-10-31T16:27:27.228Z,10.25
2022-10-31T16:29:53.363Z,17.83
2022-10-31T16:32:38.526Z,8.65
2022-10-31T16:35:10.413Z,9.65
2022-10-31T16:37:42.755Z,13.45
2022-10-31T16:40:11.016Z,11.13
2022-10-31T16:42:36.846Z,11.85
2022-10-31T16:45:02.892Z,9.55
2022-10-31T16:47:28.837Z,12.45
2022-10-31T16:49:54.678Z,13.90
2022-10-31T16:52:20.542Z,26.90
2022-10-31T16:54:46.323Z,12.02
2022-10-31T16:57:18.510Z,11.02
2022-10-31T16:59:48.192Z,9.02
2022-10-31T17:02:16.394Z,10.20
2022-10-31T17:04:43.033Z,10.27
2022-10-31T17:07:08.997Z,11.73
2022-10-31T17:09:34.827Z,9.18
2022-10-31T17:12:00.718Z,13.27
2022-10-31T17:14:26.546Z,14.07
2022-10-31T17:16:52.378Z,11.57
2022-10-31T17:19:18.345Z,7.40
2022-10-31T17:21:44.170Z,11.15
2022-10-31T17:24:13.519Z,8.07
2022-10-31T17:26:40.157Z,10.23
2022-10-31T17:29:06.072Z,9.00
2022-10-31T17:31:35.928Z,10.13
2022-10-31T17:34:04.448Z,10.23
2022-10-31T17:36:31.457Z,11.35
2022-10-31T17:38:57.363Z,7.97
2022-10-31T17:41:23.173Z,11.13
2022-10-31T17:43:48.963Z,10.13
2022-10-31T17:46:14.761Z,10.60
2022-10-31T17:48:41.062Z,8.73
2022-10-31T17:51:07.099Z,16.08
2022-10-31T17:53:34.315Z,12.50
2022-10-31T17:56:01.479Z,8.25
2022-10-31T17:58:27.696Z,9.52
2022-10-31T18:00:53.654Z,11.40
2022-10-31T18:03:19.542Z,6.97
2022-10-31T18:05:57.313Z,8.90
2022-10-31T18:08:28.391Z,12.45
2022-10-31T18:10:55.328Z,8.57
2022-10-31T18:13:22.301Z,6.93
2022-10-31T18:15:48.145Z,10.68
2022-10-31T18:18:14.312Z,6.72
2022-10-31T18:20:40.197Z,9.70
2022-10-31T18:23:06.648Z,14.65
2022-10-31T18:25:32.496Z,8.98
2022-10-31T18:27:58.646Z,7.60
2022-10-31T18:30:24.724Z,9.20
2022-10-31T18:32:51.230Z,9.63
2022-10-31T18:35:17.804Z,9.30
2022-10-31T18:37:43.660Z,11.25
2022-10-31T18:40:09.708Z,14.30
2022-10-31T18:42:37.638Z,8.15
2022-10-31T18:45:11.276Z,12.43
2022-10-31T18:47:37.467Z,18.10
2022-10-31T18:50:03.684Z,13.10
2022-10-31T18:52:29.475Z,9.32
2022-10-31T18:54:55.252Z,8.15
2022-10-31T18:57:21.287Z,12.40
2022-10-31T18:59:47.065Z,13.75
2022-10-31T19:02:17.177Z,7.28
2022-10-31T19:04:43.073Z,13.95
2022-10-31T19:07:09.053Z,8.13
2022-10-31T19:09:35.478Z,10.38
2022-10-31T19:12:01.286Z,9.75
2022-10-31T19:14:27.227Z,10.60
2022-10-31T19:16:53.841Z,13.38
2022-10-31T19:19:20.282Z,8.02
2022-10-31T19:21:46.586Z,11.35
2022-10-31T19:24:12.441Z,8.98
2022-10-31T19:26:38.284Z,14.25
2022-10-31T19:29:04.261Z,12.63
2022-10-31T19:31:30.272Z,11.15
2022-10-31T19:33:56.162Z,10.10
2022-10-31T19:36:23.060Z,9.07
2022-10-31T19:38:51.165Z,11.10
2022-10-31T19:41:22.685Z,11.15
2022-10-31T19:43:49.093Z,11.05
2022-10-31T19:46:22.778Z,13.52
2022-10-31T19:48:54.185Z,8.93
2022-10-31T19:51:21.002Z,10.20
2022-10-31T19:53:48.772Z,10.57
2022-10-31T19:56:17.231Z,12.90
2022-10-31T19:58:43.331Z,7.93
2022-10-31T20:01:14.042Z,9.40
2022-10-31T20:03:41.901Z,10.90
2022-10-31T20:06:15.860Z,13.00
2022-10-31T20:08:41.770Z,12.13
2022-10-31T20:11:07.678Z,13.27
2022-10-31T20:13:33.588Z,8.05
2022-10-31T20:16:03.199Z,13.60
2022-10-31T20:18:29.509Z,10.45
2022-10-31T20:21:06.900Z,8.95
2022-10-31T20:23:33.706Z,10.18
2022-10-31T20:25:59.993Z,8.88
2022-10-31T20:28:26.615Z,11.60
2022-10-31T20:30:52.666Z,13.65
2022-10-31T20:33:18.527Z,19.23
2022-10-31T20:35:44.381Z,15.18
2022-10-31T20:38:10.450Z,14.73
2022-10-31T20:40:36.304Z,11.98
2022-10-31T20:43:03.428Z,13.30
2022-10-31T20:45:30.303Z,10.57
2022-10-31T20:47:57.105Z,13.25
2022-10-31T20:50:24.017Z,10.63
2022-10-31T20:52:50.057Z,12.75
2022-10-31T20:55:16.214Z,9.95
2022-10-31T20:57:42.074Z,10.43
2022-10-31T21:00:10.728Z,13.70
2022-10-31T21:02:40.970Z,6.28
2022-10-31T21:05:11.780Z,15.57
2022-10-31T21:07:38.698Z,11.00
2022-10-31T21:10:13.945Z,8.43
2022-10-31T21:12:43.915Z,9.60
2022-10-31T21:15:11.396Z,10.48
2022-10-31T21:17:37.455Z,11.48
2022-10-31T21:20:05.990Z,12.23
2022-10-31T21:22:32.168Z,12.30
2022-10-31T21:24:58.133Z,8.98
2022-10-31T21:27:23.967Z,9.68
2022-10-31T21:29:49.797Z,12.95
2022-10-31T21:32:15.562Z,14.15
2022-10-31T21:34:41.313Z,11.95
2022-10-31T21:37:07.096Z,8.38
2022-10-31T21:39:32.865Z,10.55
2022-10-31T21:41:58.660Z,8.82
2022-10-31T21:44:24.476Z,7.90
2022-10-31T21:46:50.326Z,15.70
2022-10-31T21:49:16.114Z,12.30
2022-10-31T21:51:43.313Z,11.85
2022-10-31T21:54:27.023Z,9.38
2022-10-31T21:56:54.341Z,9.20
2022-10-31T21:59:20.305Z,11.10
2022-10-31T22:01:46.138Z,12.02
2022-10-31T22:04:12.058Z,16.45
2022-10-31T22:06:37.977Z,14.00
2022-10-31T22:09:06.081Z,12.93
2022-10-31T22:11:32.193Z,8.25
2022-10-31T22:13:59.631Z,14.73
2022-10-31T22:16:26.747Z,8.27
2022-10-31T22:18:54.752Z,10.02
2022-10-31T22:21:25.745Z,10.70
2022-10-31T22:23:56.747Z,10.30
2022-10-31T22:26:23.174Z,10.40
2022-10-31T22:28:55.251Z,12.35
2022-10-31T22:31:23.100Z,8.50
2022-10-31T22:33:50.499Z,11.52
2022-10-31T22:36:18.889Z,9.45
2022-10-31T22:38:45.583Z,12.20
2022-10-31T22:41:17.679Z,10.00
2022-10-31T22:43:44.192Z,7.95
2022-10-31T22:46:13.361Z,11.38
2022-10-31T22:48:42.201Z,11.55
2022-10-31T22:51:17.164Z,12.00
2022-10-31T22:53:43.976Z,13.60
2022-10-31T22:56:12.143Z,5.63
2022-10-31T22:58:37.934Z,14.15
2022-10-31T23:01:11.158Z,8.75
2022-10-31T23:03:37.953Z,12.60
2022-10-31T23:06:05.750Z,8.32
2022-10-31T23:08:34.835Z,10.93
2022-10-31T23:11:00.774Z,8.40
2022-10-31T23:13:45.241Z,7.22
2022-10-31T23:16:12.530Z,14.43
2022-10-31T23:18:50.165Z,7.82
2022-10-31T23:21:36.897Z,5.85
2022-10-31T23:24:02.880Z,9.43
2022-10-31T23:26:47.249Z,9.60
2022-10-31T23:29:13.028Z,13.82
2022-10-31T23:31:38.760Z,10.50
2022-10-31T23:34:04.540Z,8.77
2022-10-31T23:36:30.449Z,10.98
2022-10-31T23:38:56.220Z,10.50
2022-10-31T23:41:22.755Z,7.65
2022-10-31T23:43:48.727Z,10.52
2022-10-31T23:46:14.639Z,10.27
2022-10-31T23:48:40.397Z,11.63
2022-10-31T23:51:06.200Z,9.82
2022-10-31T23:53:32.094Z,12.07
2022-10-31T23:55:57.957Z,9.02
2022-10-31T23:58:23.686Z,8.82
